Samus Swan — 9HA2333 — position and weather

sailwx.info

Track history (hours):
 
Tides and Currents Weather Stations Pressure Air Temp Water Temp Dewpoint Dewpoint Depression Visibility Wind Speed Wind Dir Waves Ship Positions

Samus Swan

Last reported at 2015-Feb-01 05:32 UTC. Time now 2015-Feb-01 05:43 UTC.
Position N 43°24' E 004°60'.

Length 106 m; draft 5.2 m.

Type: Ship. MMSI: 248363000.

Date/timePositionNaut miles runAvg speedWind from/ knotsBaromVisibWave heightAir tempDewpointWater temp
2015-Feb-01 05:32N 43°24' E 004°60'0 0.0
2015-Feb-01 04:32N 43°24' E 004°60'0 0.0
2015-Feb-01 03:32N 43°24' E 004°60'0 0.0
2015-Feb-01 02:32N 43°24' E 004°60'0 0.0
2015-Feb-01 01:32N 43°24' E 004°60'0 0.0
2015-Feb-01 00:32N 43°24' E 004°60'0 0.0
2015-Jan-31 23:32N 43°24' E 004°60'0 0.0
2015-Jan-31 22:32N 43°24' E 004°60'0 0.0
2015-Jan-31 21:32N 43°24' E 004°60'0 0.0
2015-Jan-31 20:32N 43°24' E 004°60'0 0.0
2015-Jan-31 19:32N 43°24' E 004°60'0 0.0
2015-Jan-31 18:32N 43°24' E 004°60'0 0.0
2015-Jan-31 17:32N 43°24' E 004°60'0 0.0
2015-Jan-31 16:32N 43°24' E 004°60'1 1.1
2015-Jan-31 15:34N 43°23' E 004°59'1010.5
2015-Jan-31 14:34N 43°13' E 005°02'2411.6
2015-Jan-31 12:28N 42°51' E 004°48'1511.7
2015-Jan-31 11:13N 42°38' E 004°39'811.9
2015-Jan-31 10:33N 42°31' E 004°35'1311.9
2015-Jan-31 09:25N 42°19' E 004°27'2311.6
2015-Jan-31 07:28N 41°59' E 004°11'7211.3
2015-Jan-31 01:07N 41°12' E 002°59'711.6
2015-Jan-31 00:33N 41°09' E 002°51'1212.4
2015-Jan-30 23:34N 41°02' E 002°38'1212.3
2015-Jan-30 22:33N 40°55' E 002°24'1212.2
2015-Jan-30 21:33N 40°49' E 002°10'1212.5
2015-Jan-30 20:34N 40°42' E 001°56'1312.8
2015-Jan-30 19:33N 40°35' E 001°42'1312.5
2015-Jan-30 18:33N 40°28' E 001°28'1111.2
2015-Jan-30 17:33N 40°22' E 001°16'1211.8
2015-Jan-30 16:33N 40°16' E 001°02'1212.5
2015-Jan-30 15:33N 40°10' E 000°49'5212.3
2015-Jan-30 11:18N 39°35' W 000°03'1013.2
2015-Jan-30 10:33N 39°29' W 000°12'5 1.2
2015-Jan-30 06:07N 39°27' W 000°19'0 0.0
2015-Jan-30 05:22N 39°27' W 000°19'0 0.0
2015-Jan-30 04:16N 39°27' W 000°19'0 0.0
2015-Jan-30 03:28N 39°27' W 000°19'0 0.0
2015-Jan-30 02:28N 39°27' W 000°19'0 0.0
2015-Jan-30 00:16N 39°27' W 000°19'0 0.0
2015-Jan-29 23:16N 39°27' W 000°19'0 0.0
2015-Jan-29 22:16N 39°27' W 000°19'0 0.0
2015-Jan-29 11:21N 39°27' W 000°19'2 3.0
2015-Jan-29 10:33N 39°26' W 000°16'5111.4
2015-Jan-29 06:05N 40°01' E 000°33'711.8
2015-Jan-29 05:31N 40°06' E 000°39'2611.6
2015-Jan-29 03:17N 40°28' E 000°56'  
2015-Jan-25 11:24N 40°50' E 001°22'810.1
2015-Jan-25 10:33N 40°47' E 001°33'1010.1
2015-Jan-25 09:33N 40°45' E 001°46'9 9.0
2015-Jan-25 08:33N 40°43' E 001°58'7 7.3
2015-Jan-25 07:33N 40°40' E 002°06'7 7.3
2015-Jan-25 06:33N 40°34' E 002°12'6 6.3
2015-Jan-25 05:33N 40°28' E 002°16'5 5.1
2015-Jan-25 04:33N 40°23' E 002°18'5 4.6
2015-Jan-25 03:33N 40°19' E 002°19'4 3.8
2015-Jan-25 02:33N 40°20' E 002°24'10 9.7
2015-Jan-25 01:33N 40°27' E 002°32'10 9.7
2015-Jan-25 00:33N 40°35' E 002°40'1010.1
2015-Jan-24 23:33N 40°43' E 002°48'10 9.9
2015-Jan-24 22:33N 40°51' E 002°56'5 4.8
2015-Jan-24 21:33N 40°47' E 002°59'8 8.1
2015-Jan-24 20:33N 40°39' E 003°00'7 6.6
2015-Jan-24 19:33N 40°33' E 003°03'7 6.5
2015-Jan-24 18:33N 40°31' E 003°12'10 9.6
2015-Jan-24 17:33N 40°41' E 003°14'10 9.4
2015-Jan-24 16:33N 40°50' E 003°16'8 8.3
2015-Jan-24 15:33N 40°58' E 003°17'6 6.0
2015-Jan-24 14:33N 41°04' E 003°18'7 7.3
2015-Jan-24 13:33N 41°01' E 003°10'9 8.8
2015-Jan-24 12:33N 41°01' E 002°58'8 8.0
2015-Jan-24 11:33N 40°60' E 002°48'7 7.4
2015-Jan-24 10:33N 40°56' E 002°39'8 8.1
2015-Jan-24 09:33N 41°02' E 002°31'9 9.5
2015-Jan-24 08:33N 41°02' E 002°19'10 9.6
2015-Jan-24 07:33N 41°02' E 002°06'10 9.4
2015-Jan-24 06:32N 41°01' E 001°53'7 6.9
2015-Jan-24 05:29N 41°02' E 001°44'20 9.8
2015-Jan-24 03:29N 41°03' E 001°18'39 1.1
2015-Jan-22 14:31N 40°25' E 001°03'1212.2
2015-Jan-22 13:34N 40°14' E 000°58'10 8.8
2015-Jan-22 12:27N 40°05' E 000°54'6 6.3
2015-Jan-22 11:33N 39°60' E 000°56'  
Track history (hours):
 
Tides and Currents Weather Stations Pressure Air Temp Water Temp Dewpoint Dewpoint Depression Visibility Wind Speed Wind Dir Waves Ship Positions

Samus Swan

Last reported at 2015-Feb-01 05:32 UTC. Time now 2015-Feb-01 05:43 UTC.
Position N 43°24' E 004°60'.

Length 106 m; draft 5.2 m.

Type: Ship. MMSI: 248363000.

Date/timePositionNaut miles runAvg speedWind from/ knotsBaromVisibWave heightAir tempDewpointWater temp
2015-Feb-01 05:32N 43°24' E 004°60'0 0.0
2015-Feb-01 04:32N 43°24' E 004°60'0 0.0
2015-Feb-01 03:32N 43°24' E 004°60'0 0.0
2015-Feb-01 02:32N 43°24' E 004°60'0 0.0
2015-Feb-01 01:32N 43°24' E 004°60'0 0.0
2015-Feb-01 00:32N 43°24' E 004°60'0 0.0
2015-Jan-31 23:32N 43°24' E 004°60'0 0.0
2015-Jan-31 22:32N 43°24' E 004°60'0 0.0
2015-Jan-31 21:32N 43°24' E 004°60'0 0.0
2015-Jan-31 20:32N 43°24' E 004°60'0 0.0
2015-Jan-31 19:32N 43°24' E 004°60'0 0.0
2015-Jan-31 18:32N 43°24' E 004°60'0 0.0
2015-Jan-31 17:32N 43°24' E 004°60'0 0.0
2015-Jan-31 16:32N 43°24' E 004°60'1 1.1
2015-Jan-31 15:34N 43°23' E 004°59'1010.5
2015-Jan-31 14:34N 43°13' E 005°02'2411.6
2015-Jan-31 12:28N 42°51' E 004°48'1511.7
2015-Jan-31 11:13N 42°38' E 004°39'811.9
2015-Jan-31 10:33N 42°31' E 004°35'1311.9
2015-Jan-31 09:25N 42°19' E 004°27'2311.6
2015-Jan-31 07:28N 41°59' E 004°11'7211.3
2015-Jan-31 01:07N 41°12' E 002°59'711.6
2015-Jan-31 00:33N 41°09' E 002°51'1212.4
2015-Jan-30 23:34N 41°02' E 002°38'1212.3
2015-Jan-30 22:33N 40°55' E 002°24'1212.2
2015-Jan-30 21:33N 40°49' E 002°10'1212.5
2015-Jan-30 20:34N 40°42' E 001°56'1312.8
2015-Jan-30 19:33N 40°35' E 001°42'1312.5
2015-Jan-30 18:33N 40°28' E 001°28'1111.2
2015-Jan-30 17:33N 40°22' E 001°16'1211.8
2015-Jan-30 16:33N 40°16' E 001°02'1212.5
2015-Jan-30 15:33N 40°10' E 000°49'5212.3
2015-Jan-30 11:18N 39°35' W 000°03'1013.2
2015-Jan-30 10:33N 39°29' W 000°12'5 1.2
2015-Jan-30 06:07N 39°27' W 000°19'0 0.0
2015-Jan-30 05:22N 39°27' W 000°19'0 0.0
2015-Jan-30 04:16N 39°27' W 000°19'0 0.0
2015-Jan-30 03:28N 39°27' W 000°19'0 0.0
2015-Jan-30 02:28N 39°27' W 000°19'0 0.0
2015-Jan-30 00:16N 39°27' W 000°19'0 0.0
2015-Jan-29 23:16N 39°27' W 000°19'0 0.0
2015-Jan-29 22:16N 39°27' W 000°19'0 0.0
2015-Jan-29 11:21N 39°27' W 000°19'2 3.0
2015-Jan-29 10:33N 39°26' W 000°16'5111.4
2015-Jan-29 06:05N 40°01' E 000°33'711.8
2015-Jan-29 05:31N 40°06' E 000°39'2611.6
2015-Jan-29 03:17N 40°28' E 000°56'  
2015-Jan-25 11:24N 40°50' E 001°22'810.1
2015-Jan-25 10:33N 40°47' E 001°33'1010.1
2015-Jan-25 09:33N 40°45' E 001°46'9 9.0
2015-Jan-25 08:33N 40°43' E 001°58'7 7.3
2015-Jan-25 07:33N 40°40' E 002°06'7 7.3
2015-Jan-25 06:33N 40°34' E 002°12'6 6.3
2015-Jan-25 05:33N 40°28' E 002°16'5 5.1
2015-Jan-25 04:33N 40°23' E 002°18'5 4.6
2015-Jan-25 03:33N 40°19' E 002°19'4 3.8
2015-Jan-25 02:33N 40°20' E 002°24'10 9.7
2015-Jan-25 01:33N 40°27' E 002°32'10 9.7
2015-Jan-25 00:33N 40°35' E 002°40'1010.1
2015-Jan-24 23:33N 40°43' E 002°48'10 9.9
2015-Jan-24 22:33N 40°51' E 002°56'5 4.8
2015-Jan-24 21:33N 40°47' E 002°59'8 8.1
2015-Jan-24 20:33N 40°39' E 003°00'7 6.6
2015-Jan-24 19:33N 40°33' E 003°03'7 6.5
2015-Jan-24 18:33N 40°31' E 003°12'10 9.6
2015-Jan-24 17:33N 40°41' E 003°14'10 9.4
2015-Jan-24 16:33N 40°50' E 003°16'8 8.3
2015-Jan-24 15:33N 40°58' E 003°17'6 6.0
2015-Jan-24 14:33N 41°04' E 003°18'7 7.3
2015-Jan-24 13:33N 41°01' E 003°10'9 8.8
2015-Jan-24 12:33N 41°01' E 002°58'8 8.0
2015-Jan-24 11:33N 40°60' E 002°48'7 7.4
2015-Jan-24 10:33N 40°56' E 002°39'8 8.1
2015-Jan-24 09:33N 41°02' E 002°31'9 9.5
2015-Jan-24 08:33N 41°02' E 002°19'10 9.6
2015-Jan-24 07:33N 41°02' E 002°06'10 9.4
2015-Jan-24 06:32N 41°01' E 001°53'7 6.9
2015-Jan-24 05:29N 41°02' E 001°44'20 9.8
2015-Jan-24 03:29N 41°03' E 001°18'39 1.1
2015-Jan-22 14:31N 40°25' E 001°03'1212.2
2015-Jan-22 13:34N 40°14' E 000°58'10 8.8
2015-Jan-22 12:27N 40°05' E 000°54'6 6.3
2015-Jan-22 11:33N 39°60' E 000°56'  

Dump ship's entire track history